Time;durP1;ratioP1;P1;durP2;ratioP2;P2;SDS_P1;SDS_P2;PMS_P1;PMS_P2;Temp;Humidity;BMP_temperature;BMP_pressure;BME280_temperature;BME280_humidity;BME280_pressure;Samples;Min_cycle;Max_cycle;Signal;HPM_P1;HPM_P2
2023/11/08 00:01:34;;;;;;;27.10;15.70;;;;;;;8.48;92.43;100273.91;105627;1253;99097;-77
2023/11/08 00:04:20;;;;;;;27.90;14.20;;;;;;;8.46;92.49;100267.79;105694;1253;97724;-77
2023/11/08 00:07:05;;;;;;;23.30;15.40;;;;;;;8.45;92.88;100265.41;105601;1257;96620;-77
2023/11/08 00:09:51;;;;;;;27.10;15.90;;;;;;;8.43;92.80;100265.61;105594;1253;98178;-76
2023/11/08 00:12:37;;;;;;;30.20;16.50;;;;;;;8.41;93.16;100265.34;105527;1254;100835;-77
2023/11/08 00:15:22;;;;;;;25.40;15.60;;;;;;;8.41;93.44;100264.44;105361;1254;99070;-77
2023/11/08 00:18:07;;;;;;;26.40;16.20;;;;;;;8.42;93.68;100264.38;105390;1254;98228;-77
2023/11/08 00:20:53;;;;;;;25.90;15.90;;;;;;;8.43;93.60;100267.63;105431;1254;96630;-78
2023/11/08 00:23:39;;;;;;;24.80;15.50;;;;;;;8.42;93.66;100269.27;105524;1257;97105;-78
2023/11/08 00:26:26;;;;;;;28.40;16.10;;;;;;;8.41;93.71;100271.02;105379;1259;100667;-77
2023/11/08 00:29:12;;;;;;;26.20;16.30;;;;;;;8.40;93.93;100272.92;105527;1253;99216;-77
2023/11/08 00:31:58;;;;;;;27.40;16.30;;;;;;;8.39;93.95;100270.85;105661;1258;97704;-77
2023/11/08 00:34:44;;;;;;;27.90;16.30;;;;;;;8.38;93.96;100269.97;105562;1257;97890;-77
2023/11/08 00:37:30;;;;;;;26.80;16.50;;;;;;;8.36;94.08;100261.44;105584;1259;97108;-77
2023/11/08 00:40:16;;;;;;;25.20;15.90;;;;;;;8.35;93.87;100257.11;105527;1253;100995;-77
2023/11/08 00:43:01;;;;;;;28.10;15.70;;;;;;;8.36;94.12;100253.19;105604;1256;99141;-79
2023/11/08 00:45:47;;;;;;;31.90;16.80;;;;;;;8.38;94.48;100249.92;105538;1254;99014;-77
2023/11/08 00:48:38;;;;;;;27.40;17.00;;;;;;;8.39;94.23;100247.20;105462;1254;97410;-78
2023/11/08 00:51:23;;;;;;;27.80;16.40;;;;;;;8.40;93.90;100244.80;105565;1257;96709;-78
2023/11/08 00:54:10;;;;;;;29.60;16.30;;;;;;;8.39;93.92;100241.90;105639;1257;100016;-78
2023/11/08 00:56:56;;;;;;;28.20;16.40;;;;;;;8.37;93.82;100241.79;105674;1256;100413;-77
2023/11/08 00:59:42;;;;;;;29.10;16.00;;;;;;;8.36;93.69;100238.48;105538;1253;97909;-77
2023/11/08 01:02:27;;;;;;;26.10;16.00;;;;;;;8.35;93.72;100234.13;105578;1257;96606;-76
2023/11/08 01:05:14;;;;;;;30.10;17.30;;;;;;;8.36;93.70;100234.13;105622;1259;97125;-76
2023/11/08 01:08:00;;;;;;;28.10;17.30;;;;;;;8.35;93.58;100235.94;105575;1257;100016;-76
2023/11/08 01:10:46;;;;;;;26.00;16.60;;;;;;;8.34;93.49;100234.72;105566;1253;100702;-76
2023/11/08 01:13:36;;;;;;;28.90;16.30;;;;;;;8.32;93.23;100235.70;105699;1257;98297;-78
2023/11/08 01:16:22;;;;;;;32.10;16.40;;;;;;;8.29;93.38;100229.29;105553;1255;96606;-76
2023/11/08 01:19:07;;;;;;;27.10;16.30;;;;;;;8.25;93.22;100226.91;105376;1256;97221;-76
2023/11/08 01:21:53;;;;;;;24.50;14.90;;;;;;;8.21;93.10;100224.42;105452;1253;99992;-77
2023/11/08 01:24:41;;;;;;;30.30;17.30;;;;;;;8.19;93.05;100222.05;105434;1253;100425;-77
2023/11/08 01:27:26;;;;;;;24.90;15.50;;;;;;;8.16;93.04;100220.27;105701;1257;98802;-77
2023/11/08 01:30:12;;;;;;;34.30;18.10;;;;;;;8.13;92.81;100219.52;105482;1256;96606;-77
2023/11/08 01:32:57;;;;;;;32.40;20.00;;;;;;;8.10;92.92;100222.11;105264;1253;96575;-76
2023/11/08 01:35:44;;;;;;;36.10;21.30;;;;;;;8.05;93.04;100221.20;105603;1257;100739;-76
2023/11/08 01:38:30;;;;;;;34.60;20.00;;;;;;;8.02;93.03;100223.33;105495;1253;99336;-77
2023/11/08 01:41:16;;;;;;;37.10;20.20;;;;;;;7.99;92.90;100224.83;105187;1259;97757;-76
2023/11/08 01:44:03;;;;;;;29.60;19.10;;;;;;;7.95;93.17;100219.95;105499;1257;97983;-77
2023/11/08 01:46:55;;;;;;;34.70;20.60;;;;;;;7.92;93.20;100222.65;105549;1258;97776;-77
2023/11/08 01:49:41;;;;;;;33.40;19.60;;;;;;;7.90;93.39;100222.73;105567;1253;100034;-78
2023/11/08 01:52:27;;;;;;;27.10;17.60;;;;;;;7.88;93.37;100221.48;105449;1259;100590;-77
2023/11/08 01:55:13;;;;;;;30.00;17.50;;;;;;;7.86;93.32;100220.09;105491;1255;97769;-78
2023/11/08 01:57:59;;;;;;;28.40;17.10;;;;;;;7.84;93.20;100217.02;105713;1257;96533;-78
2023/11/08 02:00:49;;;;;;;28.60;16.20;;;;;;;7.81;93.32;100217.13;105426;1253;96626;-77
2023/11/08 02:03:36;;;;;;;30.90;17.20;;;;;;;7.78;93.35;100217.33;105488;1259;100872;-76
2023/11/08 02:06:22;;;;;;;31.90;18.50;;;;;;;7.74;93.24;100218.48;105573;1257;100982;-77
2023/11/08 02:09:11;;;;;;;35.00;19.20;;;;;;;7.70;93.11;100218.45;105390;1257;97706;-76
2023/11/08 02:12:00;;;;;;;30.50;20.20;;;;;;;7.65;93.36;100216.55;105467;1271;97894;-76
2023/11/08 02:15:05;;;;;;;31.10;18.20;;;;;;;7.61;93.49;100217.34;105496;1259;97145;-76
2023/11/08 02:17:51;;;;;;;31.00;17.70;;;;;;;7.58;93.59;100215.96;105517;1254;100982;-75
2023/11/08 02:20:36;;;;;;;32.70;17.30;;;;;;;7.53;93.44;100222.23;105700;1258;99267;-78
2023/11/08 02:23:22;;;;;;;29.40;16.60;;;;;;;7.50;93.47;100226.61;105520;1258;97812;-76
2023/11/08 02:26:09;;;;;;;30.60;17.40;;;;;;;7.49;93.57;100225.35;105740;1259;97478;-78
2023/11/08 02:28:55;;;;;;;30.30;16.50;;;;;;;7.46;93.58;100223.70;105628;1254;97396;-76
2023/11/08 02:31:40;;;;;;;26.10;16.60;;;;;;;7.46;93.66;100222.33;105574;1259;99973;-78
2023/11/08 02:34:25;;;;;;;26.40;16.90;;;;;;;7.46;93.88;100221.81;105650;1257;99051;-77
2023/11/08 02:37:11;;;;;;;24.10;16.20;;;;;;;7.45;93.91;100218.00;105533;1259;98722;-78
2023/11/08 02:39:56;;;;;;;28.50;16.60;;;;;;;7.42;93.98;100218.32;105577;1257;97763;-78
2023/11/08 02:42:43;;;;;;;25.40;15.10;;;;;;;7.39;93.78;100219.34;105737;1257;96612;-77
2023/11/08 02:45:29;;;;;;;31.00;18.50;;;;;;;7.37;93.51;100222.08;107216;1259;100018;-78
2023/11/08 02:48:14;;;;;;;35.10;17.90;;;;;;;7.36;93.60;100222.63;105552;1258;101430;-77
2023/11/08 02:51:00;;;;;;;30.80;17.80;;;;;;;7.33;93.58;100225.54;105592;1259;98905;-77
2023/11/08 02:53:47;;;;;;;29.70;17.10;;;;;;;7.31;93.43;100222.69;105613;1253;97234;-76
2023/11/08 02:56:40;;;;;;;31.60;17.20;;;;;;;7.28;93.53;100227.43;105635;1253;96596;-77
2023/11/08 02:59:28;;;;;;;27.50;16.50;;;;;;;7.25;93.67;100227.95;105612;1259;101066;-77
2023/11/08 03:02:13;;;;;;;31.30;16.70;;;;;;;7.24;93.94;100232.75;105555;1259;100329;-78
2023/11/08 03:04:59;;;;;;;28.50;17.70;;;;;;;7.22;94.30;100231.30;105676;1254;99162;-78
2023/11/08 03:07:45;;;;;;;29.70;17.20;;;;;;;7.21;94.24;100232.49;105756;1253;97499;-77
2023/11/08 03:10:31;;;;;;;28.80;17.10;;;;;;;7.20;94.44;100233.16;105612;1259;98188;-77
2023/11/08 03:13:16;;;;;;;27.50;15.90;;;;;;;7.18;94.48;100232.80;105636;1254;101211;-77
2023/11/08 03:16:02;;;;;;;25.90;16.20;;;;;;;7.17;94.58;100234.34;105483;1257;99675;-78
2023/11/08 03:18:48;;;;;;;30.70;17.30;;;;;;;7.16;94.46;100236.89;105426;1260;97779;-78
2023/11/08 03:21:33;;;;;;;29.10;17.50;;;;;;;7.15;94.65;100234.63;105510;1259;97837;-79
2023/11/08 03:24:19;;;;;;;33.20;17.90;;;;;;;7.14;94.80;100235.30;105668;1258;97010;-78
2023/11/08 03:27:04;;;;;;;32.00;18.40;;;;;;;7.11;94.83;100234.54;105597;1254;100550;-79
2023/11/08 03:29:50;;;;;;;32.90;17.80;;;;;;;7.07;94.98;100235.33;105622;1259;99117;-78
2023/11/08 03:32:36;;;;;;;26.10;17.30;;;;;;;7.05;95.36;100233.61;105627;1254;99015;-78
2023/11/08 03:35:22;;;;;;;31.40;17.90;;;;;;;7.04;95.57;100235.14;105588;1254;97868;-78
2023/11/08 03:38:07;;;;;;;31.90;18.10;;;;;;;7.05;95.98;100231.83;105537;1258;96639;-79
2023/11/08 03:40:53;;;;;;;35.80;18.40;;;;;;;7.06;96.05;100231.77;105646;1253;100849;-79
2023/11/08 03:43:38;;;;;;;30.60;17.80;;;;;;;7.06;96.51;100226.08;105432;1259;100175;-78
2023/11/08 03:46:24;;;;;;;30.20;17.40;;;;;;;7.06;96.49;100224.85;105450;1259;98157;-78
2023/11/08 03:49:09;;;;;;;27.80;17.90;;;;;;;7.07;96.57;100230.80;105440;1259;96586;-77
2023/11/08 03:51:55;;;;;;;28.20;17.80;;;;;;;7.07;96.78;100228.44;105571;1254;97044;-78
2023/11/08 03:54:40;;;;;;;32.50;18.70;;;;;;;7.06;96.97;100228.48;105506;1259;101197;-78
2023/11/08 03:57:28;;;;;;;29.30;17.00;;;;;;;7.04;97.12;100231.08;105492;1254;100543;-77
2023/11/08 04:00:14;;;;;;;32.00;18.30;;;;;;;7.01;97.22;100230.33;105594;1253;99389;-79
2023/11/08 04:02:59;;;;;;;27.40;16.70;;;;;;;6.98;97.43;100229.11;105384;1259;97776;-76
2023/11/08 04:05:45;;;;;;;26.90;17.60;;;;;;;6.96;97.62;100224.15;105431;1259;97118;-77
2023/11/08 04:08:31;;;;;;;30.60;18.40;;;;;;;6.95;97.84;100226.51;105370;1253;101009;-77
2023/11/08 04:11:17;;;;;;;26.70;16.70;;;;;;;6.95;97.73;100225.31;105370;1258;99169;-77
2023/11/08 04:14:02;;;;;;;29.70;17.30;;;;;;;6.96;97.86;100226.30;105549;1253;98970;-77
2023/11/08 04:16:48;;;;;;;29.60;17.10;;;;;;;6.96;98.07;100226.20;105514;1254;97959;-76
2023/11/08 04:19:34;;;;;;;26.50;16.70;;;;;;;6.97;98.19;100225.99;105474;1258;97140;-76
2023/11/08 04:22:20;;;;;;;30.30;16.90;;;;;;;6.95;98.33;100227.25;105518;1258;100640;-76
2023/11/08 04:25:06;;;;;;;28.90;17.40;;;;;;;6.95;98.63;100229.17;105524;1258;100953;-77
2023/11/08 04:27:52;;;;;;;27.90;16.90;;;;;;;6.98;98.88;100227.31;105828;1253;98988;-78
2023/11/08 04:30:38;;;;;;;28.70;16.50;;;;;;;6.99;98.89;100230.36;105604;1253;96549;-78
2023/11/08 04:33:24;;;;;;;27.80;16.80;;;;;;;7.02;98.90;100232.88;105547;1259;97122;-77
2023/11/08 04:36:12;;;;;;;28.30;16.00;;;;;;;7.04;98.89;100228.21;105575;1253;101470;-77
2023/11/08 04:38:59;;;;;;;23.00;15.60;;;;;;;7.06;98.82;100231.27;105564;1253;99293;-77
2023/11/08 04:41:45;;;;;;;25.40;15.20;;;;;;;7.04;98.67;100231.95;105614;1276;97718;-78
2023/11/08 04:44:30;;;;;;;24.10;16.00;;;;;;;7.04;98.60;100234.77;105460;1253;96552;-77
2023/11/08 04:47:19;;;;;;;27.40;16.90;;;;;;;7.03;98.36;100238.27;105601;1254;97153;-77
2023/11/08 04:50:05;;;;;;;29.00;16.80;;;;;;;7.03;98.33;100240.06;105441;1253;99935;-78
2023/11/08 04:52:51;;;;;;;24.30;16.40;;;;;;;7.02;98.21;100240.04;105510;1253;101549;-77
2023/11/08 04:55:37;;;;;;;28.40;15.60;;;;;;;7.01;98.55;100236.95;105489;1254;97904;-77
2023/11/08 04:58:24;;;;;;;30.60;15.80;;;;;;;6.99;98.53;100238.31;105409;1260;97871;-77
2023/11/08 05:01:09;;;;;;;26.40;15.70;;;;;;;6.98;98.49;100234.96;105525;1259;97180;-79
2023/11/08 05:03:58;;;;;;;26.30;15.60;;;;;;;6.98;98.45;100240.13;105530;1259;101005;-77
2023/11/08 05:06:44;;;;;;;27.90;17.20;;;;;;;6.97;98.63;100241.66;105437;1259;99760;-77
2023/11/08 05:09:29;;;;;;;34.50;18.40;;;;;;;6.97;98.68;100240.92;105404;1259;97875;-77
2023/11/08 05:12:16;;;;;;;32.10;17.30;;;;;;;6.97;98.82;100240.52;105394;1258;97893;-78
2023/11/08 05:15:05;;;;;;;30.70;17.90;;;;;;;6.97;98.90;100245.02;105487;1254;96527;-79
2023/11/08 05:17:51;;;;;;;30.90;17.50;;;;;;;6.97;98.99;100248.67;105484;1253;101361;-78
2023/11/08 05:20:37;;;;;;;31.20;16.40;;;;;;;6.97;99.08;100245.80;105503;1258;100332;-77
2023/11/08 05:23:23;;;;;;;27.80;16.80;;;;;;;6.97;99.24;100248.38;105473;1254;98451;-78
2023/11/08 05:26:09;;;;;;;26.80;17.20;;;;;;;6.98;99.19;100251.03;105585;1258;97820;-78
2023/11/08 05:28:54;;;;;;;31.30;16.00;;;;;;;6.98;99.19;100252.80;105490;1253;97029;-78
2023/11/08 05:31:40;;;;;;;26.10;15.70;;;;;;;6.98;99.02;100252.14;105462;1254;101238;-78
2023/11/08 05:34:26;;;;;;;24.60;15.50;;;;;;;6.97;99.29;100252.60;105625;1254;99053;-77
2023/11/08 05:37:11;;;;;;;21.60;13.80;;;;;;;6.99;99.43;100255.02;105530;1253;98953;-79
2023/11/08 05:39:57;;;;;;;22.00;14.40;;;;;;;7.00;99.43;100257.79;105576;1259;97037;-78
2023/11/08 05:42:42;;;;;;;22.40;13.70;;;;;;;7.00;99.26;100262.89;105529;1259;97144;-77
2023/11/08 05:45:28;;;;;;;27.30;15.00;;;;;;;6.99;99.38;100262.35;105507;1254;100008;-77
2023/11/08 05:48:14;;;;;;;21.80;14.00;;;;;;;6.97;99.29;100263.42;105530;1259;100346;-77
2023/11/08 05:51:02;;;;;;;23.00;14.30;;;;;;;6.95;99.48;100261.20;105573;1254;98602;-77
2023/11/08 05:53:47;;;;;;;23.30;14.30;;;;;;;6.94;99.53;100259.87;105570;1259;96634;-76
2023/11/08 05:56:33;;;;;;;29.50;16.40;;;;;;;6.95;99.68;100261.73;105514;1259;97054;-76
2023/11/08 05:59:19;;;;;;;31.90;16.10;;;;;;;6.95;99.69;100271.84;105648;1259;110569;-77
2023/11/08 06:02:04;;;;;;;27.20;14.50;;;;;;;6.95;99.87;100266.83;105637;1253;99654;-78
2023/11/08 06:04:50;;;;;;;28.00;15.70;;;;;;;6.95;99.84;100268.11;105484;1253;99018;-77
2023/11/08 06:07:35;;;;;;;27.70;13.10;;;;;;;6.94;99.73;100263.40;105579;1254;96797;-78
2023/11/08 06:10:22;;;;;;;22.60;13.30;;;;;;;6.94;99.64;100265.39;105468;1258;97169;-77
2023/11/08 06:13:09;;;;;;;24.70;15.10;;;;;;;6.93;99.94;100264.46;105442;1254;100021;-77
2023/11/08 06:15:54;;;;;;;24.10;15.20;;;;;;;6.92;99.98;100265.92;105550;1254;99070;-79
2023/11/08 06:18:40;;;;;;;24.50;14.90;;;;;;;6.92;100.00;100265.20;105431;1258;97725;-77
2023/11/08 06:21:26;;;;;;;24.10;14.00;;;;;;;6.95;100.00;100269.71;105470;1259;96598;-77
2023/11/08 06:24:11;;;;;;;24.30;13.50;;;;;;;6.98;100.00;100270.08;105612;1258;97161;-77
2023/11/08 06:27:00;;;;;;;22.60;13.50;;;;;;;7.01;100.00;100280.74;105543;1256;100714;-76
2023/11/08 06:29:45;;;;;;;24.20;13.80;;;;;;;7.03;100.00;100282.51;105515;1259;99115;-78
2023/11/08 06:32:32;;;;;;;26.40;14.60;;;;;;;7.06;100.00;100282.86;105508;1260;99164;-77
2023/11/08 06:35:17;;;;;;;32.00;16.60;;;;;;;7.09;100.00;100285.41;105498;1254;97131;-76
2023/11/08 06:38:03;;;;;;;23.70;16.40;;;;;;;7.11;100.00;100284.45;105551;1254;97039;-78
2023/11/08 06:40:49;;;;;;;26.20;14.80;;;;;;;7.14;100.00;100286.80;105602;1259;101283;-77
2023/11/08 06:43:34;;;;;;;24.70;14.20;;;;;;;7.16;100.00;100290.09;105658;1257;99081;-78
2023/11/08 06:46:20;;;;;;;21.10;12.50;;;;;;;7.18;100.00;100288.37;105738;1257;98998;-78
2023/11/08 06:49:07;;;;;;;17.80;11.70;;;;;;;7.20;100.00;100291.20;105701;1258;96594;-78
2023/11/08 06:51:52;;;;;;;18.80;12.40;;;;;;;7.23;100.00;100289.13;105667;1259;97045;-78
2023/11/08 06:54:40;;;;;;;18.50;12.00;;;;;;;7.24;100.00;100293.06;105555;1260;99998;-78
2023/11/08 06:57:26;;;;;;;22.70;13.00;;;;;;;7.27;100.00;100291.67;105672;1260;99212;-78
2023/11/08 07:00:14;;;;;;;23.10;13.90;;;;;;;7.30;100.00;100293.42;105668;1257;97750;-76
2023/11/08 07:02:59;;;;;;;25.20;13.30;;;;;;;7.34;100.00;100295.48;105591;1254;97371;-79
2023/11/08 07:05:45;;;;;;;21.70;12.70;;;;;;;7.36;100.00;100295.19;105491;1258;96990;-77
2023/11/08 07:08:35;;;;;;;18.20;12.00;;;;;;;7.40;100.00;100297.14;105596;1253;101283;-79
2023/11/08 07:11:21;;;;;;;20.90;11.90;;;;;;;7.43;100.00;100298.90;105969;1254;99099;-78
2023/11/08 07:14:06;;;;;;;17.80;11.30;;;;;;;7.45;100.00;100299.67;105843;1256;97747;-76
2023/11/08 07:16:52;;;;;;;19.10;11.80;;;;;;;7.47;100.00;100303.19;105762;1259;96543;-78
2023/11/08 07:19:37;;;;;;;20.50;12.50;;;;;;;7.51;100.00;100303.98;105910;1266;97110;-78
2023/11/08 07:22:25;;;;;;;19.80;11.70;;;;;;;7.55;100.00;100306.52;105775;1259;100178;-78
2023/11/08 07:25:11;;;;;;;23.60;13.70;;;;;;;7.58;100.00;100306.89;105564;1259;99811;-77
2023/11/08 07:27:57;;;;;;;22.20;12.30;;;;;;;7.61;100.00;100311.36;105529;1253;97744;-76
2023/11/08 07:30:42;;;;;;;19.00;13.30;;;;;;;7.64;100.00;100313.81;105569;1260;97907;-78
2023/11/08 07:33:28;;;;;;;19.90;12.20;;;;;;;7.67;100.00;100312.80;105522;1257;96594;-79
2023/11/08 07:36:14;;;;;;;19.00;12.00;;;;;;;7.70;100.00;100314.71;105497;1262;100112;-78
2023/11/08 07:39:04;;;;;;;18.70;11.60;;;;;;;7.74;100.00;100318.07;105818;1259;99280;-78
2023/11/08 07:41:50;;;;;;;16.90;12.30;;;;;;;7.77;100.00;100318.55;105751;1268;98421;-79
2023/11/08 07:44:36;;;;;;;21.80;12.20;;;;;;;7.81;100.00;100318.52;106270;1254;96604;-87
2023/11/08 07:47:23;;;;;;;20.20;12.50;;;;;;;7.84;100.00;100319.05;106709;1257;96533;-88
2023/11/08 07:50:11;;;;;;;18.50;13.00;;;;;;;7.88;100.00;100317.88;106544;1262;100004;-88
2023/11/08 07:52:57;;;;;;;19.20;12.40;;;;;;;7.92;100.00;100317.71;106492;1260;100858;-83
2023/11/08 07:55:43;;;;;;;18.40;12.40;;;;;;;7.97;100.00;100316.23;106686;1255;97738;-83
2023/11/08 07:58:29;;;;;;;17.70;12.10;;;;;;;8.02;100.00;100316.42;106721;1256;97262;-84
2023/11/08 08:01:15;;;;;;;21.50;12.00;;;;;;;8.06;100.00;100317.85;106442;1259;97132;-81
2023/11/08 08:04:01;;;;;;;18.20;11.00;;;;;;;8.09;100.00;100322.09;106299;1259;100853;-82
2023/11/08 08:06:47;;;;;;;19.20;11.80;;;;;;;8.11;100.00;100322.95;106374;1257;100441;-82
2023/11/08 08:09:54;;;;;;;20.70;12.30;;;;;;;8.14;100.00;100322.31;106411;1260;98632;-90
2023/11/08 08:12:42;;;;;;;18.40;12.90;;;;;;;8.16;100.00;100319.73;106242;1267;96563;-79
2023/11/08 08:15:28;;;;;;;16.90;11.50;;;;;;;8.18;100.00;100322.30;106573;1260;95898;-79
2023/11/08 08:18:14;;;;;;;20.40;13.00;;;;;;;8.21;100.00;100321.95;106054;1253;101293;-79
2023/11/08 08:20:59;;;;;;;18.90;11.50;;;;;;;8.24;100.00;100318.05;105914;1254;99080;-79
2023/11/08 08:23:45;;;;;;;16.10;11.00;;;;;;;8.26;100.00;100317.63;105901;1258;97704;-80
2023/11/08 08:26:30;;;;;;;19.00;11.60;;;;;;;8.28;100.00;100322.53;105926;1259;96584;-80
2023/11/08 08:29:16;;;;;;;19.80;11.90;;;;;;;8.29;100.00;100323.20;106002;1254;96610;-78
2023/11/08 08:32:03;;;;;;;18.40;11.50;;;;;;;8.31;100.00;100326.52;106530;1254;100088;-81
2023/11/08 08:34:49;;;;;;;18.30;11.40;;;;;;;8.33;100.00;100327.86;106076;1254;99113;-86
2023/11/08 08:37:35;;;;;;;20.30;12.60;;;;;;;8.34;100.00;100329.98;106259;1263;97871;-82
2023/11/08 08:40:20;;;;;;;18.20;11.60;;;;;;;8.36;100.00;100332.42;106467;1258;97884;-80
2023/11/08 08:43:05;;;;;;;21.50;11.90;;;;;;;8.39;100.00;100330.22;106717;1260;97026;-80
2023/11/08 08:45:51;;;;;;;18.10;10.80;;;;;;;8.40;100.00;100330.40;106557;1254;100534;-83
2023/11/08 08:48:36;;;;;;;17.30;10.40;;;;;;;8.43;100.00;100333.61;106286;1254;99168;-81
2023/11/08 08:51:22;;;;;;;19.90;10.80;;;;;;;8.47;100.00;100332.92;106369;1262;97770;-82
2023/11/08 08:54:08;;;;;;;16.40;10.00;;;;;;;8.51;100.00;100330.32;106536;1254;96495;-82
2023/11/08 08:56:54;;;;;;;15.40;10.30;;;;;;;8.58;100.00;100333.87;106374;1260;97752;-83
2023/11/08 08:59:39;;;;;;;18.10;10.30;;;;;;;8.65;100.00;100334.36;106434;1259;101288;-84
2023/11/08 09:02:25;;;;;;;15.90;10.60;;;;;;;8.76;100.00;100333.77;106296;1258;100311;-81
2023/11/08 09:05:11;;;;;;;13.80;9.70;;;;;;;8.91;100.00;100328.97;106308;1254;98911;-84
2023/11/08 09:07:58;;;;;;;17.80;9.80;;;;;;;9.08;100.00;100332.53;106183;1260;96802;-84
2023/11/08 09:10:44;;;;;;;17.40;10.00;;;;;;;9.23;100.00;100330.48;106618;1254;96568;-83
2023/11/08 09:13:29;;;;;;;14.10;8.80;;;;;;;9.36;100.00;100332.75;106691;1254;101318;-82
2023/11/08 09:16:16;;;;;;;13.50;8.90;;;;;;;9.46;100.00;100335.59;106540;1253;100193;-84
2023/11/08 09:19:02;;;;;;;13.30;9.00;;;;;;;9.50;100.00;100335.81;106414;1259;99916;-81
2023/11/08 09:21:48;;;;;;;11.00;8.40;;;;;;;9.52;100.00;100336.29;106508;1253;96545;-82
2023/11/08 09:24:34;;;;;;;15.00;9.70;;;;;;;9.53;100.00;100334.88;106506;1255;96526;-83
2023/11/08 09:27:20;;;;;;;13.30;8.80;;;;;;;9.53;100.00;100330.66;106260;1259;100812;-84
2023/11/08 09:30:08;;;;;;;13.70;9.10;;;;;;;9.54;100.00;100329.85;106175;1260;100421;-80
2023/11/08 09:32:54;;;;;;;11.00;9.40;;;;;;;9.55;100.00;100331.10;106576;1254;97834;-80
2023/11/08 09:35:39;;;;;;;12.90;9.50;;;;;;;9.54;100.00;100337.27;106473;1259;96605;-79
2023/11/08 09:38:27;;;;;;;14.00;11.10;;;;;;;9.54;100.00;100338.41;106035;1254;97208;-83
2023/11/08 09:41:13;;;;;;;14.10;10.70;;;;;;;9.55;100.00;100335.39;106155;1260;99978;-81
2023/11/08 09:44:01;;;;;;;15.90;11.70;;;;;;;9.56;100.00;100333.29;106179;1254;100093;-82
2023/11/08 09:46:49;;;;;;;15.20;12.10;;;;;;;9.58;100.00;100335.24;106475;1254;97781;-79
2023/11/08 09:49:38;;;;;;;14.70;12.20;;;;;;;9.59;100.00;100335.23;106088;1257;97199;-87
2023/11/08 09:52:26;;;;;;;14.60;11.00;;;;;;;9.62;100.00;100333.05;106346;1257;96523;-84
2023/11/08 09:55:12;;;;;;;13.90;11.30;;;;;;;9.66;100.00;100329.60;106468;1255;101349;-85
2023/11/08 09:57:59;;;;;;;12.30;9.80;;;;;;;9.69;100.00;100330.42;106063;1253;99179;-77
2023/11/08 10:00:46;;;;;;;13.20;10.50;;;;;;;9.73;100.00;100327.95;105530;1259;99915;-78
2023/11/08 10:03:34;;;;;;;16.20;11.40;;;;;;;9.78;100.00;100328.23;105753;1259;98053;-81
2023/11/08 10:06:19;;;;;;;22.40;15.30;;;;;;;9.83;100.00;100328.73;106593;1258;97950;-80
2023/11/08 10:09:06;;;;;;;13.70;11.60;;;;;;;9.87;100.00;100329.98;106631;1254;102601;-81
2023/11/08 10:11:51;;;;;;;17.70;12.90;;;;;;;9.92;100.00;100325.95;106827;1254;99236;-81
2023/11/08 10:14:44;;;;;;;17.50;11.70;;;;;;;9.96;100.00;100325.96;106805;1258;106304;-81
2023/11/08 10:17:40;;;;;;;12.30;10.50;;;;;;;10.02;100.00;100321.48;106218;1257;98453;-82
2023/11/08 10:20:34;;;;;;;10.80;8.50;;;;;;;10.09;100.00;100315.64;106238;1260;97814;-77
2023/11/08 10:23:26;;;;;;;16.00;11.40;;;;;;;10.14;100.00;100315.60;106144;1260;102734;-81
2023/11/08 10:26:21;;;;;;;17.40;12.50;;;;;;;10.17;100.00;100313.48;106896;1258;99175;-80
2023/11/08 10:29:07;;;;;;;23.10;14.90;;;;;;;10.17;100.00;100312.13;106235;1255;97985;-78
2023/11/08 10:31:53;;;;;;;22.30;14.40;;;;;;;10.17;100.00;100308.05;106120;1257;97932;-79
2023/11/08 10:34:38;;;;;;;12.90;10.80;;;;;;;10.16;100.00;100305.65;106198;1254;97953;-79
2023/11/08 10:37:27;;;;;;;12.10;9.10;;;;;;;10.18;100.00;100304.39;106383;1254;101452;-80
2023/11/08 10:40:13;;;;;;;9.60;7.80;;;;;;;10.22;100.00;100303.13;106206;1259;99187;-79
2023/11/08 10:43:02;;;;;;;8.40;7.00;;;;;;;10.28;100.00;100302.59;106747;1257;98573;-78
2023/11/08 10:45:49;;;;;;;9.50;6.80;;;;;;;10.32;100.00;100305.48;106700;1254;98901;-81
2023/11/08 10:48:36;;;;;;;14.30;7.40;;;;;;;10.34;99.92;100305.00;106124;1257;99342;-78
2023/11/08 10:51:22;;;;;;;7.80;6.90;;;;;;;10.34;99.82;100300.14;106167;1254;101398;-79
2023/11/08 10:54:08;;;;;;;9.10;6.80;;;;;;;10.37;100.00;100300.66;106249;1260;100653;-78
2023/11/08 10:56:59;;;;;;;9.20;7.20;;;;;;;10.41;99.95;100298.55;105938;1260;99014;-79
2023/11/08 10:59:50;;;;;;;8.40;6.70;;;;;;;10.44;99.88;100299.23;106364;1254;99336;-77
2023/11/08 11:02:37;;;;;;;7.50;6.10;;;;;;;10.46;99.60;100297.39;106746;1258;98339;-78
2023/11/08 11:05:24;;;;;;;6.00;5.40;;;;;;;10.48;99.65;100299.23;105690;1254;102092;-79
2023/11/08 11:08:18;;;;;;;8.40;5.60;;;;;;;10.50;98.73;100299.58;105590;1268;99108;-78
2023/11/08 11:11:05;;;;;;;9.90;6.60;;;;;;;10.53;98.80;100298.61;105575;1254;97960;-78
2023/11/08 11:13:58;;;;;;;7.00;5.80;;;;;;;10.59;98.88;100297.88;105609;1269;98069;-77
2023/11/08 11:16:52;;;;;;;7.00;5.80;;;;;;;10.62;98.16;100296.02;105614;1260;98472;-78
2023/11/08 11:19:43;;;;;;;6.20;5.50;;;;;;;10.61;97.64;100294.32;105630;1257;101441;-78
2023/11/08 11:22:29;;;;;;;6.50;5.20;;;;;;;10.59;97.38;100295.13;105725;1257;99118;-77
2023/11/08 11:25:50;;;;;;;5.40;4.30;;;;;;;10.58;97.05;100293.02;105888;1254;98979;-78
2023/11/08 11:28:55;;;;;;;5.20;4.40;;;;;;;10.58;96.36;100301.08;105640;1258;97960;-78
2023/11/08 11:31:41;;;;;;;5.60;3.80;;;;;;;10.55;95.43;100302.70;105677;1254;98507;-78
2023/11/08 11:34:29;;;;;;;6.00;4.20;;;;;;;10.51;94.85;100299.02;105580;1257;102654;-79
2023/11/08 11:37:18;;;;;;;4.70;4.30;;;;;;;10.52;94.81;100300.63;105673;1257;99137;-78
2023/11/08 11:40:08;;;;;;;4.40;3.90;;;;;;;10.54;94.82;100294.63;105559;1254;99346;-79
2023/11/08 11:42:54;;;;;;;5.40;4.10;;;;;;;10.58;94.57;100289.67;105734;1257;98860;-78
2023/11/08 11:45:43;;;;;;;6.60;4.60;;;;;;;10.61;94.46;100287.22;105692;1259;98472;-78
2023/11/08 11:48:32;;;;;;;5.70;4.70;;;;;;;10.65;94.45;100285.65;105536;1254;102274;-78
2023/11/08 11:51:17;;;;;;;5.40;4.60;;;;;;;10.66;93.99;100286.23;105500;1260;100321;-77
2023/11/08 11:54:03;;;;;;;7.10;5.40;;;;;;;10.67;94.20;100287.77;105363;1257;98694;-76
2023/11/08 11:56:48;;;;;;;6.40;4.90;;;;;;;10.65;93.96;100288.52;105414;1260;98018;-77
2023/11/08 11:59:34;;;;;;;5.20;4.70;;;;;;;10.62;94.02;100287.61;105634;1257;98463;-77
2023/11/08 12:02:20;;;;;;;6.10;4.50;;;;;;;10.61;94.30;100287.39;105443;1257;101369;-77
2023/11/08 12:05:07;;;;;;;9.50;5.50;;;;;;;10.61;94.30;100285.29;105409;1254;99225;-78
2023/11/08 12:07:53;;;;;;;9.30;6.10;;;;;;;10.61;94.19;100285.78;105612;1257;98021;-77
2023/11/08 12:10:38;;;;;;;6.60;5.50;;;;;;;10.63;94.14;100287.73;105735;1257;97950;-78
2023/11/08 12:13:24;;;;;;;8.40;5.60;;;;;;;10.65;94.06;100283.58;105631;1258;98578;-79
2023/11/08 12:16:10;;;;;;;6.70;5.30;;;;;;;10.68;93.95;100282.66;105690;1254;103102;-78
2023/11/08 12:18:55;;;;;;;6.90;5.40;;;;;;;10.71;93.98;100279.52;105638;1257;101111;-77
2023/11/08 12:21:43;;;;;;;7.40;5.40;;;;;;;10.73;94.10;100279.98;105646;1254;99011;-77
2023/11/08 12:24:32;;;;;;;8.30;5.50;;;;;;;10.75;93.86;100279.91;105634;1257;98622;-78
2023/11/08 12:27:18;;;;;;;8.30;6.10;;;;;;;10.75;93.51;100284.37;107300;1260;98414;-83
2023/11/08 12:30:04;;;;;;;6.60;5.90;;;;;;;10.75;93.31;100289.52;106790;1254;103660;-81
2023/11/08 12:32:50;;;;;;;6.20;5.60;;;;;;;10.76;93.48;100288.38;106476;1254;99331;-80
2023/11/08 12:35:35;;;;;;;12.30;6.00;;;;;;;10.77;93.34;100291.09;106351;1257;98253;-81